Terminal Aerodrome Forecast
Issued by NWS

Home | Current Version | Previous Version | Text Only | Print | Product List | Glossary On
Versions: 1 2 3 4 5 6 7 8 9 10 11 12 13 14 15 16
000
FTUS45 KREV 242337
TAFMMH
TAF
KMMH 242337Z 2500/2524 28022G39KT P6SM BKN120 BKN180
     FM250400 30014G24KT P6SM SCT070
     FM250600 30011KT P6SM SKC
     FM251100 VRB05KT P6SM FEW100 SCT180=

USA.gov is the U.S. government's official web portal to all federal, state and local government web resources and services.